login   |    register
Have a review you want to share with the modeling world? If you would like to review a product for our sites, please check out the Submissions page and learn how easy it is to send us an online review. Vendors or manufacturers looking to have their products reviewed should contact us directly.
THE COMPLETE LIST OF KINETIC MODEL KITS REVIEWS
32
6

SECTION SCALE MFG. ID REVIEW TITLE REVIEWED BY TYPE CAT RATED VIEWS DATE
Aircraft: Props1:48K48024S2F TrackerFrederick BoucherIn-BoxPlastic Kits90%173552011-05-09
Aircraft: Props1:48KIN-K5012S-2E Interior Photo EtchFrederick BoucherIn-BoxPhoto Etch95%99142011-05-10
Aircraft1:4848012F-16C Russ AmottIn-BoxPlastic Kits84%109252011-09-03
Aircraft1:7272001F-16I SufaRuss AmottBuiltPlastic Kits78%205292011-10-05
Aircraft1:4848025C-2A GreyhoundMatthew QuirozIn-BoxPlastic Kits90%104592011-10-25
Aircraft: Jets1:48K48004F-16 A/B NSWAC AdversaryTim Hatton In-BoxPlastic Kits80%127662011-12-11
Aircraft: Jets1:48K48023Grumman A-6E Intruder Tim Hatton In-BoxPlastic Kits80%140722012-01-14
Aircraft1:48K48006F-16I SUFA (storm)Justin McCrackenBuiltPlastic Kits98%125682012-01-31
AFVs1:35K61007M-ATV Seb VialeIn-BoxPlastic KitsN/A106522012-03-20
AFVs1:35KI-K61007M-ATV Rob HarveyIn-BoxPlastic KitsN/A139882012-03-31
Tanks1:35KI-K61006M109A2 DamonIn-BoxPlastic Kits85%130752012-10-07
Aircraft: Jets1:48K48038T-45 GoshawkIs a secretIn-BoxPlastic Kits90%112482012-12-03
Aircraft: Jets1:48#48020F-5AMatthew QuirozBuiltPlastic Kits90%138862012-12-24
AFVs1:3561012RG-31 Mk.3 MRAPJim StarkweatherFirst LookPlastic KitsN/A124952013-02-08
Aircraft: Jets1:323206Hawk 100Is a secretIn-BoxPlastic Kits90%116162013-04-02
Aircraft: Jets1:48K48042Mirage 2000CTim Hatton BuiltPlastic KitsN/A192692013-06-03
Armor/AFV1:35K61012RG-31Jason WestBuiltPlastic Kits87%116622013-04-10
Aircraft: Props1:48K48039Grumman S-2A TrackerKevin Brant In-BoxPlastic Kits70%119102013-06-06
Aircraft: Jets1:48K48046Kfir C2/C7Tim Hatton BuiltPlastic Kits90%134612013-07-03
Aircraft: Jets1:48K48045Mirage 2000-5 with Tow TractorTim Hatton In-BoxPlastic Kits85%161712013-09-02
Aircraft: Jets1:48K48043Alpha Jet A/EJim StarkweatherFirst LookPlastic KitsN/A107912013-10-08
Aircraft: Jets1:48K48043Alpha Jet A/EIs a secretIn-BoxPlastic Kits93%125372013-12-13
Aircraft: Jets1:48K48021F-5B Freedom FighterKevin Brant In-BoxPlastic Kits75%108052014-03-31
Aircraft: Jets1:4848044EA-6B ProwlerRuss AmottIn-BoxPlastic Kits87%111822014-04-05
Aircraft: Jets1:48K48051Fouga CM.170 MagisterDrabslabIn-BoxPlastic Kits90%107442014-04-07
Aircraft: Jets1:48K48053F-21/ Kfir C1Andy BrazierIn-BoxPlastic Kits85%112692014-04-22
Armor/AFV1:35K61011MaxxPro MRAPGino P. QuintilianiIn-BoxPlastic Kits85%201902014-05-24
Aircraft: Jets1:48K48041Sea Harrier FA2Darren BakerIn-BoxPlastic KitsN/A121822014-09-30
Aircraft: Jets1:48KI-K48050Mirage IIIETim Hatton In-BoxPlastic Kits85%101412015-03-07
Aircraft: Props1:24K3207Republic P-47D “Bubbletop”Doug NelsonIn-BoxPlastic KitsN/A102762015-06-20
Aircraft: Jets1:4848026AMXIs a secretIn-BoxPlastic Kits93%92762015-07-18
Aircraft: Jets1:48K48061Super Étendard SuE/SEMTim Hatton In-BoxPlastic KitsN/A101042016-01-29
Aircraft: Jets1:48K48035Sea Harrier FRS.1Tim Hatton BuiltPlastic KitsN/A89242016-02-08
Aircraft: Jets1:48K48058Mirage IIIS/RSTim Hatton First LookPlastic KitsN/A71142016-10-22
Aircraft: Jets1:4848030 F/A-18A/B/CF-188 HornetTim Hatton In-BoxPlastic KitsN/A65512017-02-20
Aircraft: Jets1:48K48062Sukhoi SU-33 Flanker DDrabslabIn-BoxPlastic Kits95%59912017-02-25
Aircraft: Jets1:48K48040Harrier Two Seater TrainerMitko NikitovIn-BoxPlastic KitsN/A36842018-01-22
Aircraft: Jets1:48K48040T HarrierTim Hatton In-BoxPlastic KitsN/A27432018-03-17